createdAt,value
2018-09-15T00:01:05.649Z,3.80
2018-09-15T00:03:34.072Z,5.62
2018-09-15T00:06:02.566Z,3.60
2018-09-15T00:08:31.010Z,3.92
2018-09-15T00:10:59.485Z,4.55
2018-09-15T00:13:27.935Z,3.02
2018-09-15T00:15:56.369Z,3.55
2018-09-15T00:18:24.800Z,4.08
2018-09-15T00:20:53.247Z,3.47
2018-09-15T00:23:21.396Z,4.58
2018-09-15T00:25:49.933Z,6.08
2018-09-15T00:28:18.381Z,9.43
2018-09-15T00:30:46.829Z,5.40
2018-09-15T00:33:15.362Z,4.08
2018-09-15T00:35:43.851Z,2.80
2018-09-15T00:38:12.002Z,2.58
2018-09-15T00:40:40.446Z,3.02
2018-09-15T00:43:08.848Z,3.12
2018-09-15T00:45:36.971Z,3.05
2018-09-15T00:48:05.408Z,3.55
2018-09-15T00:50:33.857Z,2.45
2018-09-15T00:53:02.277Z,2.25
2018-09-15T00:55:30.754Z,2.52
2018-09-15T00:57:59.193Z,2.95
2018-09-15T01:00:27.483Z,2.90
2018-09-15T01:02:55.953Z,2.95
2018-09-15T01:05:24.444Z,2.60
2018-09-15T01:07:52.845Z,3.40
2018-09-15T01:10:21.012Z,2.65
2018-09-15T01:12:49.405Z,3.72
2018-09-15T01:15:17.876Z,3.05
2018-09-15T01:17:46.290Z,3.37
2018-09-15T01:20:15.282Z,2.15
2018-09-15T01:22:43.729Z,4.67
2018-09-15T01:25:12.178Z,2.58
2018-09-15T01:27:40.621Z,2.95
2018-09-15T01:30:09.095Z,2.40
2018-09-15T01:32:37.553Z,4.60
2018-09-15T01:35:05.965Z,4.55
2018-09-15T01:37:34.404Z,3.45
2018-09-15T01:40:02.859Z,3.00
2018-09-15T01:42:31.316Z,2.40
2018-09-15T01:44:59.764Z,2.10
2018-09-15T01:47:28.208Z,3.58
2018-09-15T01:49:56.666Z,1.85
2018-09-15T01:52:25.440Z,2.00
2018-09-15T01:54:53.861Z,2.75
2018-09-15T01:57:22.358Z,2.00
2018-09-15T01:59:50.496Z,2.45
2018-09-15T02:02:18.968Z,2.22
2018-09-15T02:04:47.405Z,2.45
2018-09-15T02:07:15.850Z,4.90
2018-09-15T02:09:44.264Z,3.35
2018-09-15T02:12:12.740Z,2.70
2018-09-15T02:14:41.172Z,2.40
2018-09-15T02:17:09.709Z,2.52
2018-09-15T02:19:38.277Z,2.50
2018-09-15T02:22:06.781Z,3.65
2018-09-15T02:24:35.208Z,2.62
2018-09-15T02:27:03.729Z,2.30
2018-09-15T02:29:32.212Z,2.12
2018-09-15T02:32:00.687Z,2.67
2018-09-15T02:34:29.165Z,3.10
2018-09-15T02:36:57.335Z,2.00
2018-09-15T02:39:25.849Z,2.58
2018-09-15T02:41:54.301Z,2.20
2018-09-15T02:44:22.737Z,3.67
2018-09-15T02:46:51.298Z,1.70
2018-09-15T02:49:19.728Z,2.37
2018-09-15T02:51:48.146Z,2.15
2018-09-15T02:54:16.543Z,2.37
2018-09-15T02:56:45.012Z,2.22
2018-09-15T02:59:13.448Z,3.35
2018-09-15T03:01:41.862Z,2.33
2018-09-15T03:04:10.273Z,3.77
2018-09-15T03:06:38.759Z,2.42
2018-09-15T03:09:07.962Z,3.95
2018-09-15T03:14:51.888Z,2.05
2018-09-15T03:17:20.341Z,5.15
2018-09-15T03:19:48.831Z,2.12
2018-09-15T03:22:17.483Z,2.60
2018-09-15T03:24:45.997Z,2.70
2018-09-15T03:27:14.501Z,4.00
2018-09-15T03:29:43.028Z,3.75
2018-09-15T03:32:11.598Z,3.95
2018-09-15T03:34:40.068Z,4.20
2018-09-15T03:37:08.595Z,2.40
2018-09-15T03:39:37.076Z,2.98
2018-09-15T03:42:05.581Z,4.22
2018-09-15T03:44:34.078Z,5.12
2018-09-15T03:47:02.558Z,2.67
2018-09-15T03:49:31.099Z,4.87
2018-09-15T03:51:59.565Z,3.17
2018-09-15T03:54:27.786Z,4.03
2018-09-15T03:56:56.301Z,3.37
2018-09-15T03:59:24.775Z,3.45
2018-09-15T04:01:53.224Z,3.27
2018-09-15T04:04:21.828Z,2.67
2018-09-15T04:06:50.750Z,2.80
2018-09-15T04:09:19.214Z,3.33
2018-09-15T04:11:47.677Z,4.05
2018-09-15T04:14:16.174Z,3.90
2018-09-15T04:16:44.654Z,2.12
2018-09-15T04:19:13.156Z,6.53
2018-09-15T04:21:41.640Z,2.87
2018-09-15T04:24:10.169Z,3.17
2018-09-15T04:26:38.652Z,3.33
2018-09-15T04:29:07.133Z,2.72
2018-09-15T04:31:35.596Z,2.70
2018-09-15T04:34:04.075Z,6.30
2018-09-15T04:36:32.286Z,3.05
2018-09-15T04:39:00.748Z,3.17
2018-09-15T04:41:29.184Z,5.20
2018-09-15T04:43:57.648Z,2.60
2018-09-15T04:46:26.088Z,4.70
2018-09-15T04:48:54.573Z,4.00
2018-09-15T04:51:23.028Z,2.40
2018-09-15T04:53:51.501Z,2.83
2018-09-15T04:56:19.967Z,3.65
2018-09-15T04:58:48.475Z,2.80
2018-09-15T05:01:16.901Z,2.20
2018-09-15T05:03:45.431Z,4.37
2018-09-15T05:06:13.893Z,4.80
2018-09-15T05:08:42.036Z,4.03
2018-09-15T05:11:10.464Z,3.62
2018-09-15T05:13:38.578Z,4.97
2018-09-15T05:16:07.058Z,4.45
2018-09-15T05:18:35.531Z,6.85
2018-09-15T05:21:04.239Z,8.13
2018-09-15T05:23:33.105Z,17.20
2018-09-15T05:26:01.580Z,12.78
2018-09-15T05:28:30.063Z,14.05
2018-09-15T05:30:58.549Z,20.68
2018-09-15T05:33:27.001Z,18.37
2018-09-15T05:35:55.484Z,26.17
2018-09-15T05:38:23.921Z,24.95
2018-09-15T05:40:52.413Z,22.13
2018-09-15T05:43:20.923Z,22.80
2018-09-15T05:45:49.442Z,27.58
2018-09-15T05:48:17.892Z,22.45
2018-09-15T05:50:46.362Z,25.82
2018-09-15T05:53:14.828Z,29.30
2018-09-15T05:55:43.281Z,32.50
2018-09-15T05:58:11.724Z,29.02
2018-09-15T06:00:40.238Z,31.55
2018-09-15T06:03:08.720Z,33.35
2018-09-15T06:05:37.233Z,32.80
2018-09-15T06:08:06.154Z,31.90
2018-09-15T06:10:34.605Z,33.28
2018-09-15T06:13:02.759Z,30.05
2018-09-15T06:15:31.248Z,29.30
2018-09-15T06:17:59.411Z,32.38
2018-09-15T06:20:27.879Z,37.65
2018-09-15T06:22:56.038Z,34.60
2018-09-15T06:25:24.557Z,34.20
2018-09-15T06:27:52.984Z,34.53
2018-09-15T06:30:21.424Z,33.53
2018-09-15T06:32:49.840Z,27.75
2018-09-15T06:35:18.360Z,32.55
2018-09-15T06:37:46.853Z,28.10
2018-09-15T06:40:15.344Z,30.85
2018-09-15T06:42:43.844Z,34.85
2018-09-15T06:45:12.133Z,32.17
2018-09-15T06:47:40.615Z,30.88
2018-09-15T06:50:09.353Z,33.20
2018-09-15T06:52:37.969Z,29.05
2018-09-15T06:55:06.584Z,31.27
2018-09-15T06:57:35.043Z,33.05
2018-09-15T07:00:03.606Z,32.80
2018-09-15T07:02:32.223Z,30.17
2018-09-15T07:05:00.415Z,25.20
2018-09-15T07:07:28.692Z,31.70
2018-09-15T07:09:57.102Z,29.98
2018-09-15T07:12:25.609Z,31.35
2018-09-15T07:14:54.062Z,31.10
2018-09-15T07:17:22.249Z,28.75
2018-09-15T07:19:50.716Z,29.27
2018-09-15T07:22:19.189Z,28.42
2018-09-15T07:24:47.646Z,29.95
2018-09-15T07:27:16.117Z,31.77
2018-09-15T07:29:44.743Z,29.35
2018-09-15T07:32:13.224Z,27.98
2018-09-15T07:34:41.763Z,26.05
2018-09-15T07:37:09.944Z,25.77
2018-09-15T07:39:38.393Z,28.40
2018-09-15T07:42:06.848Z,26.12
2018-09-15T07:44:35.327Z,22.52
2018-09-15T07:47:03.814Z,26.40
2018-09-15T07:49:32.246Z,24.90
2018-09-15T07:52:00.728Z,29.82
2018-09-15T07:54:29.231Z,28.80
2018-09-15T07:56:57.768Z,27.87
2018-09-15T07:59:26.581Z,28.10
2018-09-15T08:01:55.166Z,24.18
2018-09-15T08:04:23.591Z,27.35
2018-09-15T08:06:52.128Z,25.52
2018-09-15T08:09:20.576Z,25.95
2018-09-15T08:11:49.048Z,26.17
2018-09-15T08:14:17.533Z,22.82
2018-09-15T08:16:46.056Z,25.60
2018-09-15T08:19:14.521Z,22.65
2018-09-15T08:21:42.993Z,23.92
2018-09-15T08:24:11.411Z,22.27
2018-09-15T08:26:39.930Z,20.52
2018-09-15T08:29:08.423Z,22.20
2018-09-15T08:31:36.892Z,19.10
2018-09-15T08:34:05.381Z,18.37
2018-09-15T08:36:33.885Z,18.82
2018-09-15T08:39:02.366Z,21.60
2018-09-15T08:41:30.829Z,22.35
2018-09-15T08:43:59.013Z,19.05
2018-09-15T08:46:27.486Z,21.20
2018-09-15T08:48:55.981Z,19.65
2018-09-15T08:51:24.460Z,18.65
2018-09-15T08:53:52.943Z,21.80
2018-09-15T08:56:21.419Z,20.65
2018-09-15T08:58:49.880Z,21.77
2018-09-15T09:01:18.317Z,18.35
2018-09-15T09:03:46.827Z,19.92
2018-09-15T09:06:15.275Z,19.02
2018-09-15T09:08:43.740Z,20.32
2018-09-15T09:11:12.185Z,20.27
2018-09-15T09:13:40.652Z,14.90
2018-09-15T09:16:09.288Z,15.70
2018-09-15T09:18:37.760Z,16.12
2018-09-15T09:21:07.395Z,17.70
2018-09-15T09:23:35.871Z,15.60
2018-09-15T09:26:04.450Z,13.85
2018-09-15T09:28:32.503Z,17.50
2018-09-15T09:31:00.954Z,14.53
2018-09-15T09:33:29.464Z,14.85
2018-09-15T09:35:57.901Z,15.35
2018-09-15T09:38:26.408Z,15.88
2018-09-15T09:40:54.934Z,13.80
2018-09-15T09:43:23.530Z,14.18
2018-09-15T09:45:52.005Z,15.83
2018-09-15T09:48:20.734Z,11.55
2018-09-15T09:50:49.167Z,12.28
2018-09-15T09:53:17.830Z,14.20
2018-09-15T09:55:46.304Z,13.20
2018-09-15T09:58:14.796Z,12.75
2018-09-15T10:00:48.521Z,11.55
2018-09-15T10:03:16.666Z,12.63
2018-09-15T10:05:45.149Z,11.45
2018-09-15T10:08:13.323Z,11.68
2018-09-15T10:10:41.797Z,13.03
2018-09-15T10:13:10.281Z,13.55
2018-09-15T10:15:38.744Z,9.85
2018-09-15T10:18:07.263Z,9.68
2018-09-15T10:20:35.759Z,10.23
2018-09-15T10:23:04.485Z,9.78
2018-09-15T10:25:32.980Z,9.58
2018-09-15T10:28:01.514Z,10.15
2018-09-15T10:30:29.982Z,7.72
2018-09-15T10:32:58.495Z,8.23
2018-09-15T10:35:26.652Z,8.68
2018-09-15T10:37:55.079Z,7.65
2018-09-15T10:40:23.326Z,10.10
2018-09-15T10:42:51.484Z,7.58
2018-09-15T10:45:20.071Z,6.78
2018-09-15T10:47:48.524Z,7.70
2018-09-15T10:50:17.027Z,7.60
2018-09-15T10:52:45.458Z,10.40
2018-09-15T10:55:14.092Z,7.33
2018-09-15T10:57:42.549Z,9.25
2018-09-15T11:00:11.047Z,9.53
2018-09-15T11:02:39.481Z,11.45
2018-09-15T11:05:07.992Z,9.35
2018-09-15T11:07:36.415Z,11.28
2018-09-15T11:10:04.955Z,10.23
2018-09-15T11:12:33.135Z,11.78
2018-09-15T11:15:01.706Z,9.10
2018-09-15T11:17:29.805Z,8.15
2018-09-15T11:19:58.299Z,9.13
2018-09-15T11:22:26.839Z,11.70
2018-09-15T11:24:55.300Z,8.58
2018-09-15T11:27:23.745Z,8.25
2018-09-15T11:29:52.220Z,6.53
2018-09-15T11:32:20.917Z,8.15
2018-09-15T11:34:49.397Z,10.30
2018-09-15T11:37:17.872Z,7.90
2018-09-15T11:39:46.351Z,8.63
2018-09-15T11:42:14.795Z,6.70
2018-09-15T11:44:43.256Z,8.58
2018-09-15T11:47:11.427Z,7.25
2018-09-15T11:49:39.901Z,7.90
2018-09-15T11:52:08.064Z,8.98
2018-09-15T11:54:36.600Z,5.28
2018-09-15T11:57:05.061Z,7.10
2018-09-15T11:59:33.556Z,6.53
2018-09-15T12:02:01.773Z,7.47
2018-09-15T12:04:30.212Z,6.92
2018-09-15T12:06:58.692Z,8.05
2018-09-15T12:09:27.172Z,6.42
2018-09-15T12:11:55.643Z,8.85
2018-09-15T12:14:24.109Z,7.17
2018-09-15T12:16:52.606Z,6.12
2018-09-15T12:19:21.069Z,5.97
2018-09-15T12:21:49.619Z,4.72
2018-09-15T12:24:18.006Z,5.45
2018-09-15T12:26:46.601Z,5.17
2018-09-15T12:29:15.040Z,5.97
2018-09-15T12:31:43.506Z,7.00
2018-09-15T12:34:11.969Z,5.85
2018-09-15T12:36:40.469Z,5.50
2018-09-15T12:39:09.394Z,12.80
2018-09-15T12:41:37.593Z,8.45
2018-09-15T12:44:06.084Z,9.83
2018-09-15T12:46:34.565Z,5.95
2018-09-15T12:49:03.013Z,7.45
2018-09-15T12:51:31.538Z,5.12
2018-09-15T12:54:00.027Z,5.58
2018-09-15T12:56:28.514Z,5.60
2018-09-15T12:58:56.950Z,5.45
2018-09-15T13:01:25.429Z,5.42
2018-09-15T13:03:53.558Z,5.28
2018-09-15T13:06:22.121Z,5.33
2018-09-15T13:08:50.554Z,5.15
2018-09-15T13:11:19.011Z,6.35
2018-09-15T13:13:47.463Z,6.65
2018-09-15T13:16:15.977Z,5.45
2018-09-15T13:18:44.421Z,4.92
2018-09-15T13:21:12.873Z,4.40
2018-09-15T13:23:41.365Z,8.38
2018-09-15T13:26:09.866Z,5.35
2018-09-15T13:28:38.279Z,5.95
2018-09-15T13:31:06.769Z,4.78
2018-09-15T13:33:35.216Z,5.33
2018-09-15T13:36:03.419Z,4.53
2018-09-15T13:38:31.536Z,8.40
2018-09-15T13:41:00.009Z,4.67
2018-09-15T13:43:28.174Z,8.20
2018-09-15T13:45:56.736Z,6.33
2018-09-15T13:48:25.178Z,5.30
2018-09-15T13:50:53.829Z,5.22
2018-09-15T13:53:22.330Z,5.97
2018-09-15T13:55:50.757Z,4.00
2018-09-15T13:58:19.265Z,5.30
2018-09-15T14:00:47.679Z,5.75
2018-09-15T14:03:16.150Z,5.25
2018-09-15T14:05:44.632Z,4.28
2018-09-15T14:08:13.164Z,8.63
2018-09-15T14:10:41.637Z,5.08
2018-09-15T14:13:10.050Z,6.37
2018-09-15T14:15:38.502Z,5.65
2018-09-15T14:18:07.086Z,5.58
2018-09-15T14:20:35.505Z,7.25
2018-09-15T14:23:03.956Z,4.90
2018-09-15T14:25:32.458Z,4.55
2018-09-15T14:28:00.900Z,4.47
2018-09-15T14:30:29.381Z,4.60
2018-09-15T14:32:57.967Z,4.55
2018-09-15T14:35:26.424Z,5.85
2018-09-15T14:37:54.887Z,6.67
2018-09-15T14:40:23.346Z,5.90
2018-09-15T14:42:51.931Z,3.65
2018-09-15T14:45:20.427Z,5.72
2018-09-15T14:47:48.932Z,4.05
2018-09-15T14:50:18.094Z,4.37
2018-09-15T14:52:46.536Z,7.97
2018-09-15T14:55:15.024Z,9.25
2018-09-15T14:57:43.561Z,7.60
2018-09-15T15:00:12.030Z,5.80
2018-09-15T15:02:40.630Z,6.17
2018-09-15T15:05:08.800Z,4.80
2018-09-15T15:07:37.184Z,7.25
2018-09-15T15:10:05.673Z,6.97
2018-09-15T15:12:34.130Z,8.25
2018-09-15T15:15:02.672Z,6.05
2018-09-15T15:17:31.132Z,5.42
2018-09-15T15:19:59.638Z,4.25
2018-09-15T15:22:28.099Z,5.90
2018-09-15T15:24:56.572Z,4.25
2018-09-15T15:27:25.013Z,4.00
2018-09-15T15:29:53.492Z,6.65
2018-09-15T15:32:21.945Z,5.67
2018-09-15T15:34:50.457Z,5.22
2018-09-15T15:37:18.906Z,7.72
2018-09-15T15:39:47.384Z,4.00
2018-09-15T15:42:15.726Z,5.20
2018-09-15T15:44:43.832Z,5.08
2018-09-15T15:47:12.358Z,7.22
2018-09-15T15:49:40.845Z,4.80
2018-09-15T15:52:09.027Z,4.62
2018-09-15T15:54:37.628Z,5.53
2018-09-15T15:57:06.180Z,6.05
2018-09-15T15:59:34.721Z,5.00
2018-09-15T16:02:03.238Z,4.40
2018-09-15T16:04:31.771Z,5.12
2018-09-15T16:07:00.250Z,5.55
2018-09-15T16:09:28.783Z,3.85
2018-09-15T16:11:57.265Z,6.25
2018-09-15T16:14:25.813Z,9.10
2018-09-15T16:16:54.335Z,6.83
2018-09-15T16:19:22.853Z,4.17
2018-09-15T16:21:51.772Z,6.03
2018-09-15T16:24:20.253Z,4.58
2018-09-15T16:26:48.708Z,4.90
2018-09-15T16:29:17.193Z,3.90
2018-09-15T16:31:45.691Z,3.45
2018-09-15T16:34:13.851Z,4.87
2018-09-15T16:36:41.993Z,3.47
2018-09-15T16:39:12.012Z,4.20
2018-09-15T16:41:40.581Z,4.62
2018-09-15T16:44:09.064Z,4.22
2018-09-15T16:46:37.553Z,5.25
2018-09-15T16:49:06.758Z,3.47
2018-09-15T16:51:35.184Z,3.58
2018-09-15T16:54:04.384Z,5.80
2018-09-15T16:56:32.559Z,5.12
2018-09-15T16:59:01.056Z,3.90
2018-09-15T17:01:29.538Z,3.85
2018-09-15T17:03:57.960Z,5.50
2018-09-15T17:06:26.152Z,5.05
2018-09-15T17:08:54.641Z,4.08
2018-09-15T17:11:22.807Z,5.22
2018-09-15T17:13:51.248Z,4.75
2018-09-15T17:16:20.057Z,3.75
2018-09-15T17:18:48.432Z,3.80
2018-09-15T17:21:16.896Z,4.45
2018-09-15T17:23:45.035Z,3.83
2018-09-15T17:26:13.488Z,5.37
2018-09-15T17:28:41.944Z,4.25
2018-09-15T17:31:10.402Z,3.02
2018-09-15T17:33:38.562Z,4.08
2018-09-15T17:36:07.121Z,5.87
2018-09-15T17:38:35.627Z,3.60
2018-09-15T17:41:04.158Z,5.30
2018-09-15T17:43:32.628Z,4.25
2018-09-15T17:46:01.140Z,5.60
2018-09-15T17:48:29.596Z,4.20
2018-09-15T17:50:58.031Z,4.15
2018-09-15T17:53:26.517Z,4.17
2018-09-15T17:55:54.993Z,4.70
2018-09-15T17:58:23.416Z,4.10
2018-09-15T18:00:51.588Z,4.30
2018-09-15T18:03:19.946Z,10.03
2018-09-15T18:05:48.477Z,9.33
2018-09-15T18:08:16.958Z,6.05
2018-09-15T18:10:45.543Z,7.62
2018-09-15T18:13:14.200Z,4.60
2018-09-15T18:15:42.684Z,4.17
2018-09-15T18:18:11.123Z,6.50
2018-09-15T18:20:39.541Z,4.15
2018-09-15T18:23:08.056Z,4.50
2018-09-15T18:25:36.350Z,4.65
2018-09-15T18:28:04.892Z,6.28
2018-09-15T18:30:33.310Z,6.12
2018-09-15T18:33:01.492Z,4.95
2018-09-15T18:35:29.966Z,4.60
2018-09-15T18:37:58.480Z,4.97
2018-09-15T18:40:26.941Z,6.75
2018-09-15T18:42:55.446Z,9.63
2018-09-15T18:45:23.885Z,4.60
2018-09-15T18:47:52.406Z,5.87
2018-09-15T18:50:21.563Z,4.15
2018-09-15T18:52:50.032Z,4.37
2018-09-15T18:55:18.478Z,4.45
2018-09-15T18:57:46.999Z,4.30
2018-09-15T19:00:15.148Z,9.45
2018-09-15T19:02:43.613Z,6.00
2018-09-15T19:05:11.808Z,5.15
2018-09-15T19:07:40.399Z,5.60
2018-09-15T19:10:08.855Z,5.37
2018-09-15T19:12:37.369Z,5.97
2018-09-15T19:15:05.884Z,5.12
2018-09-15T19:17:34.382Z,5.22
2018-09-15T19:20:02.827Z,6.80
2018-09-15T19:22:31.285Z,5.75
2018-09-15T19:25:00.322Z,6.90
2018-09-15T19:27:28.817Z,5.10
2018-09-15T19:29:57.269Z,8.15
2018-09-15T19:32:25.423Z,6.75
2018-09-15T19:34:53.887Z,5.53
2018-09-15T19:37:22.374Z,7.83
2018-09-15T19:39:50.821Z,5.42
2018-09-15T19:42:19.328Z,9.35
2018-09-15T19:44:47.785Z,7.70
2018-09-15T19:47:16.218Z,6.00
2018-09-15T19:49:44.636Z,5.83
2018-09-15T19:52:13.155Z,9.43
2018-09-15T19:54:41.601Z,5.35
2018-09-15T19:57:10.112Z,9.40
2018-09-15T19:59:38.596Z,9.50
2018-09-15T20:02:07.045Z,7.62
2018-09-15T20:04:35.564Z,8.78
2018-09-15T20:07:04.096Z,7.17
2018-09-15T20:09:32.563Z,5.90
2018-09-15T20:12:00.995Z,7.65
2018-09-15T20:14:29.168Z,8.40
2018-09-15T20:16:56.469Z,8.48
2018-09-15T20:19:24.083Z,7.62
2018-09-15T20:21:51.413Z,8.83
2018-09-15T20:24:19.892Z,7.17
2018-09-15T20:26:48.340Z,7.53
2018-09-15T20:29:16.857Z,8.90
2018-09-15T20:31:45.304Z,12.33
2018-09-15T20:34:13.464Z,8.43
2018-09-15T20:36:41.921Z,7.97
2018-09-15T20:39:11.906Z,10.65
2018-09-15T20:41:40.748Z,8.40
2018-09-15T20:44:09.329Z,10.88
2018-09-15T20:46:37.798Z,6.97
2018-09-15T20:49:06.786Z,8.43
2018-09-15T20:51:35.231Z,8.48
2018-09-15T20:54:03.765Z,9.90
2018-09-15T20:56:32.213Z,7.87
2018-09-15T20:59:00.692Z,6.20
2018-09-15T21:01:29.194Z,7.17
2018-09-15T21:03:57.656Z,7.28
2018-09-15T21:06:26.152Z,11.75
2018-09-15T21:08:54.307Z,11.30
2018-09-15T21:11:22.773Z,6.12
2018-09-15T21:13:51.237Z,12.43
2018-09-15T21:16:19.652Z,8.43
2018-09-15T21:18:48.216Z,11.65
2018-09-15T21:21:16.360Z,10.15
2018-09-15T21:23:44.840Z,7.03
2018-09-15T21:26:13.269Z,14.65
2018-09-15T21:28:41.733Z,5.90
2018-09-15T21:31:10.184Z,7.17
2018-09-15T21:33:38.345Z,7.95
2018-09-15T21:36:06.857Z,7.75
2018-09-15T21:38:35.393Z,10.82
2018-09-15T21:41:03.920Z,7.62
2018-09-15T21:43:32.358Z,8.38
2018-09-15T21:46:00.877Z,7.20
2018-09-15T21:48:29.283Z,7.97
2018-09-15T21:50:57.437Z,9.10
2018-09-15T21:53:25.932Z,10.38
2018-09-15T21:55:54.364Z,8.23
2018-09-15T21:58:22.804Z,10.38
2018-09-15T22:00:55.253Z,6.60
2018-09-15T22:03:23.732Z,7.67
2018-09-15T22:05:52.392Z,6.90
2018-09-15T22:08:20.976Z,8.33
2018-09-15T22:10:49.404Z,8.30
2018-09-15T22:13:17.849Z,7.60
2018-09-15T22:15:46.351Z,15.13
2018-09-15T22:18:14.793Z,8.68
2018-09-15T22:20:43.296Z,8.25
2018-09-15T22:23:11.742Z,8.85
2018-09-15T22:25:40.188Z,6.85
2018-09-15T22:28:08.645Z,14.40
2018-09-15T22:30:37.128Z,10.88
2018-09-15T22:33:05.581Z,11.80
2018-09-15T22:35:33.821Z,8.78
2018-09-15T22:38:02.268Z,8.30
2018-09-15T22:40:30.772Z,8.48
2018-09-15T22:42:59.289Z,5.97
2018-09-15T22:45:27.836Z,12.23
2018-09-15T22:47:55.968Z,10.98
2018-09-15T22:50:24.439Z,8.58
2018-09-15T22:52:52.886Z,7.50
2018-09-15T22:55:21.067Z,8.53
2018-09-15T22:57:49.558Z,6.05
2018-09-15T23:00:18.143Z,8.78
2018-09-15T23:02:46.588Z,6.97
2018-09-15T23:05:15.092Z,7.87
2018-09-15T23:07:43.520Z,6.28
2018-09-15T23:10:11.976Z,8.88
2018-09-15T23:12:40.692Z,7.80
2018-09-15T23:15:09.184Z,6.33
2018-09-15T23:17:37.308Z,6.53
2018-09-15T23:20:05.816Z,5.78
2018-09-15T23:22:34.374Z,6.75
2018-09-15T23:25:02.805Z,6.15
2018-09-15T23:27:31.280Z,9.18
2018-09-15T23:29:59.746Z,8.13
2018-09-15T23:32:28.406Z,7.05
2018-09-15T23:34:56.864Z,6.67
2018-09-15T23:37:25.308Z,7.78
2018-09-15T23:39:53.723Z,6.97
2018-09-15T23:42:22.204Z,6.30
2018-09-15T23:44:50.688Z,7.47
2018-09-15T23:47:19.125Z,7.70
2018-09-15T23:49:47.576Z,6.05
2018-09-15T23:52:16.021Z,7.58
2018-09-15T23:54:44.432Z,8.55
2018-09-15T23:57:12.884Z,5.95
2018-09-15T23:59:41.289Z,7.10
